createdAt,value
2022-09-28T00:01:53.454Z,56.17
2022-09-28T00:04:22.205Z,56.35
2022-09-28T00:06:50.477Z,56.37
2022-09-28T00:09:19.012Z,56.50
2022-09-28T00:11:48.634Z,56.70
2022-09-28T00:14:17.087Z,57.05
2022-09-28T00:16:47.023Z,57.42
2022-09-28T00:19:15.819Z,57.62
2022-09-28T00:21:44.324Z,57.87
2022-09-28T00:24:16.085Z,57.84
2022-09-28T00:26:47.353Z,57.82
2022-09-28T00:29:22.491Z,58.10
2022-09-28T00:31:53.518Z,58.39
2022-09-28T00:34:22.107Z,58.24
2022-09-28T00:36:50.594Z,58.45
2022-09-28T00:39:19.357Z,58.43
2022-09-28T00:41:48.124Z,58.34
2022-09-28T00:44:43.742Z,58.12
2022-09-28T00:47:33.973Z,58.42
2022-09-28T00:50:07.044Z,58.57
2022-09-28T00:52:40.715Z,58.65
2022-09-28T00:55:13.186Z,58.84
2022-09-28T00:57:44.713Z,58.83
2022-09-28T01:00:16.835Z,58.83
2022-09-28T01:02:47.513Z,58.77
2022-09-28T01:05:17.836Z,59.05
2022-09-28T01:07:47.673Z,59.02
2022-09-28T01:10:16.535Z,59.08
2022-09-28T01:12:44.804Z,59.20
2022-09-28T01:15:13.454Z,59.30
2022-09-28T01:17:57.409Z,59.12
2022-09-28T01:20:55.893Z,59.57
2022-09-28T01:24:05.008Z,59.59
2022-09-28T01:26:48.708Z,59.32
2022-09-28T01:29:27.001Z,59.32
2022-09-28T01:32:08.671Z,59.27
2022-09-28T01:34:43.398Z,59.27
2022-09-28T01:37:16.143Z,59.19
2022-09-28T01:39:48.721Z,59.17
2022-09-28T01:42:23.166Z,59.14
2022-09-28T01:44:54.209Z,59.39
2022-09-28T01:47:25.807Z,59.30
2022-09-28T01:49:59.615Z,59.36
2022-09-28T01:52:34.057Z,59.38
2022-09-28T01:55:10.832Z,59.40
2022-09-28T01:57:44.226Z,59.51
2022-09-28T02:00:15.959Z,59.60
2022-09-28T02:02:49.884Z,59.73
2022-09-28T02:05:28.405Z,59.69
2022-09-28T02:08:00.974Z,59.67
2022-09-28T02:10:34.635Z,59.53
2022-09-28T02:13:09.931Z,59.83
2022-09-28T02:15:44.263Z,59.64
2022-09-28T02:18:12.918Z,59.66
2022-09-28T02:20:47.993Z,59.60
2022-09-28T02:23:18.141Z,59.90
2022-09-28T02:25:52.692Z,59.49
2022-09-28T02:28:23.696Z,59.57
2022-09-28T02:30:52.417Z,59.33
2022-09-28T02:33:26.050Z,59.38
2022-09-28T02:35:54.684Z,59.34
2022-09-28T02:38:24.943Z,59.34
2022-09-28T02:41:04.743Z,59.26
2022-09-28T02:43:49.507Z,59.33
2022-09-28T02:46:29.665Z,59.54
2022-09-28T02:49:21.697Z,59.36
2022-09-28T02:52:13.781Z,59.05
2022-09-28T02:55:12.748Z,59.29
2022-09-28T02:57:55.633Z,59.22
2022-09-28T03:00:25.696Z,59.41
2022-09-28T03:03:03.428Z,59.41
2022-09-28T03:05:45.395Z,59.33
2022-09-28T03:08:23.264Z,59.22
2022-09-28T03:10:57.220Z,59.39
2022-09-28T03:13:27.321Z,59.16
2022-09-28T03:16:12.368Z,58.87
2022-09-28T03:18:42.926Z,59.04
2022-09-28T03:21:12.891Z,59.07
2022-09-28T03:23:42.056Z,59.14
2022-09-28T03:26:12.054Z,58.97
2022-09-28T03:28:40.648Z,58.83
2022-09-28T03:31:13.807Z,58.93
2022-09-28T03:33:43.188Z,59.05
2022-09-28T03:36:14.686Z,59.00
2022-09-28T03:38:43.084Z,58.62
2022-09-28T03:41:12.493Z,58.68
2022-09-28T03:43:43.582Z,58.38
2022-09-28T03:46:15.836Z,58.34
2022-09-28T03:48:48.952Z,58.32
2022-09-28T03:51:17.608Z,58.47
2022-09-28T03:53:45.875Z,58.31
2022-09-28T03:56:16.194Z,58.36
2022-09-28T03:58:44.539Z,58.34
2022-09-28T04:01:18.683Z,58.73
2022-09-28T04:03:49.096Z,58.89
2022-09-28T04:06:17.850Z,58.64
2022-09-28T04:08:46.084Z,58.76
2022-09-28T04:11:15.883Z,58.64
2022-09-28T04:13:44.589Z,58.63
2022-09-28T04:16:17.951Z,58.87
2022-09-28T04:18:55.058Z,59.03
2022-09-28T04:21:55.538Z,58.94
2022-09-28T04:24:23.987Z,59.28
2022-09-28T04:27:12.880Z,59.00
2022-09-28T04:29:43.979Z,59.04
2022-09-28T04:32:15.230Z,59.02
2022-09-28T04:34:44.473Z,58.99
2022-09-28T04:37:13.525Z,59.34
2022-09-28T04:39:45.086Z,59.18
2022-09-28T04:42:17.972Z,59.47
2022-09-28T04:44:47.878Z,59.38
2022-09-28T04:47:17.578Z,59.48
2022-09-28T04:50:20.926Z,59.93
2022-09-28T04:53:13.057Z,60.07
2022-09-28T04:55:41.329Z,60.25
2022-09-28T04:58:09.564Z,60.23
2022-09-28T05:00:38.530Z,60.54
2022-09-28T05:03:37.201Z,60.45
2022-09-28T05:06:16.759Z,60.56
2022-09-28T05:08:47.323Z,60.88
2022-09-28T05:11:16.800Z,60.80
2022-09-28T05:13:46.986Z,61.10
2022-09-28T05:16:18.163Z,61.17
2022-09-28T05:19:07.846Z,61.06
2022-09-28T05:21:36.118Z,61.19
2022-09-28T05:24:07.708Z,61.44
2022-09-28T05:26:38.583Z,61.36
2022-09-28T05:29:08.628Z,61.39
2022-09-28T05:31:55.732Z,61.54
2022-09-28T05:34:48.780Z,61.68
2022-09-28T05:37:23.413Z,61.96
2022-09-28T05:39:51.897Z,61.96
2022-09-28T05:42:20.201Z,61.86
2022-09-28T05:44:48.557Z,62.27
2022-09-28T05:47:16.845Z,62.22
2022-09-28T05:49:45.723Z,62.21
2022-09-28T05:52:15.638Z,62.10
2022-09-28T05:54:44.205Z,62.36
2022-09-28T05:57:12.408Z,62.47
2022-09-28T05:59:40.674Z,62.54
2022-09-28T06:02:08.980Z,62.34
2022-09-28T06:04:37.468Z,62.05
2022-09-28T06:07:06.674Z,61.26
2022-09-28T06:09:37.473Z,60.58
2022-09-28T06:12:24.078Z,59.83
2022-09-28T06:14:58.064Z,59.80
2022-09-28T06:17:26.545Z,59.18
2022-09-28T06:20:15.012Z,59.22
2022-09-28T06:23:09.615Z,58.87
2022-09-28T06:25:39.818Z,58.93
2022-09-28T06:28:11.073Z,58.28
2022-09-28T06:30:41.116Z,57.70
2022-09-28T06:33:14.453Z,57.63
2022-09-28T06:35:42.805Z,56.93
2022-09-28T06:38:11.437Z,57.05
2022-09-28T06:40:41.248Z,56.58
2022-09-28T06:43:12.625Z,56.47
2022-09-28T06:45:59.423Z,56.02
2022-09-28T06:48:44.343Z,55.61
2022-09-28T06:51:33.292Z,55.51
2022-09-28T06:54:22.777Z,55.42
2022-09-28T06:57:00.596Z,55.52
2022-09-28T06:59:31.485Z,55.54
2022-09-28T07:02:01.640Z,55.15
2022-09-28T07:04:44.908Z,54.98
2022-09-28T07:07:14.330Z,54.26
2022-09-28T07:09:50.348Z,53.60
2022-09-28T07:12:26.416Z,53.38
2022-09-28T07:14:59.133Z,53.16
2022-09-28T07:17:29.790Z,52.96
2022-09-28T07:20:14.811Z,52.54
2022-09-28T07:22:45.329Z,52.05
2022-09-28T07:25:19.501Z,51.70
2022-09-28T07:27:59.759Z,51.24
2022-09-28T07:30:46.554Z,51.56
2022-09-28T07:33:41.057Z,51.26
2022-09-28T07:36:29.215Z,51.45
2022-09-28T07:38:57.689Z,51.52
2022-09-28T07:41:32.669Z,51.72
2022-09-28T07:44:06.669Z,52.07
2022-09-28T07:46:37.933Z,51.19
2022-09-28T07:49:12.592Z,50.65
2022-09-28T07:51:58.674Z,50.33
2022-09-28T07:54:30.425Z,49.42
2022-09-28T07:57:15.380Z,49.42
2022-09-28T08:00:09.009Z,49.71
2022-09-28T08:02:44.692Z,49.28
2022-09-28T08:05:17.231Z,49.19
2022-09-28T08:07:45.573Z,48.64
2022-09-28T08:10:14.283Z,48.39
2022-09-28T08:12:59.137Z,48.64
2022-09-28T08:16:05.326Z,48.71
2022-09-28T08:18:39.582Z,48.46
2022-09-28T08:21:25.968Z,48.10
2022-09-28T08:23:54.429Z,48.02
2022-09-28T08:26:22.665Z,47.23
2022-09-28T08:28:51.372Z,46.89
2022-09-28T08:31:50.453Z,46.34
2022-09-28T08:34:42.817Z,45.78
2022-09-28T08:37:55.519Z,45.69
2022-09-28T08:40:51.713Z,45.85
2022-09-28T08:43:48.950Z,46.24
2022-09-28T08:46:30.546Z,46.58
2022-09-28T08:49:31.130Z,46.57
2022-09-28T08:52:23.653Z,45.88
2022-09-28T08:55:15.238Z,45.57
2022-09-28T08:57:50.879Z,45.78
2022-09-28T09:00:23.000Z,45.22
2022-09-28T09:02:51.468Z,44.80
2022-09-28T09:05:29.498Z,45.08
2022-09-28T09:08:17.235Z,45.42
2022-09-28T09:10:53.925Z,44.83
2022-09-28T09:13:53.447Z,45.69
2022-09-28T09:16:37.059Z,46.34
2022-09-28T09:19:35.647Z,46.36
2022-09-28T09:22:19.238Z,46.88
2022-09-28T09:24:51.336Z,46.91
2022-09-28T09:27:39.618Z,47.16
2022-09-28T09:30:12.961Z,46.48
2022-09-28T09:33:05.196Z,46.52
2022-09-28T09:36:06.792Z,46.57
2022-09-28T09:39:25.542Z,46.85
2022-09-28T09:42:31.040Z,47.64
2022-09-28T09:45:32.451Z,47.47
2022-09-28T09:48:39.612Z,47.60
2022-09-28T09:51:17.845Z,47.19
2022-09-28T09:53:52.448Z,47.96
2022-09-28T09:56:28.257Z,47.65
2022-09-28T09:59:12.754Z,47.42
2022-09-28T10:01:59.896Z,47.27
2022-09-28T10:04:49.763Z,46.72
2022-09-28T10:07:33.033Z,47.12
2022-09-28T10:10:04.241Z,46.37
2022-09-28T10:12:49.665Z,46.57
2022-09-28T10:15:24.071Z,46.31
2022-09-28T10:18:14.199Z,45.79
2022-09-28T10:21:02.710Z,45.23
2022-09-28T10:23:59.800Z,45.62
2022-09-28T10:26:35.912Z,45.67
2022-09-28T10:29:13.230Z,45.26
2022-09-28T10:31:43.516Z,45.08
2022-09-28T10:34:20.259Z,45.22
2022-09-28T10:36:53.119Z,45.48
2022-09-28T10:39:32.408Z,45.03
2022-09-28T10:42:03.778Z,45.32
2022-09-28T10:44:36.727Z,45.08
2022-09-28T10:47:20.803Z,45.87
2022-09-28T10:49:51.257Z,45.35
2022-09-28T10:52:45.072Z,44.80
2022-09-28T10:55:32.404Z,44.76
2022-09-28T10:58:01.926Z,45.02
2022-09-28T11:00:42.975Z,44.81
2022-09-28T11:03:21.776Z,45.09
2022-09-28T11:05:58.286Z,45.50
2022-09-28T11:08:31.661Z,47.13
2022-09-28T11:11:05.114Z,48.29
2022-09-28T11:13:44.119Z,48.56
2022-09-28T11:16:31.463Z,48.76
2022-09-28T11:19:07.851Z,48.43
2022-09-28T11:21:44.261Z,47.86
2022-09-28T11:24:21.758Z,48.04
2022-09-28T11:26:54.144Z,48.42
2022-09-28T11:29:32.069Z,47.88
2022-09-28T11:32:27.094Z,48.14
2022-09-28T11:35:19.777Z,48.71
2022-09-28T11:38:10.724Z,48.55
2022-09-28T11:41:10.656Z,48.62
2022-09-28T11:43:56.816Z,48.59
2022-09-28T11:46:33.195Z,47.88
2022-09-28T11:49:26.416Z,47.92
2022-09-28T11:52:01.278Z,48.16
2022-09-28T11:54:38.059Z,48.31
2022-09-28T11:57:13.206Z,48.02
2022-09-28T11:59:59.032Z,47.84
2022-09-28T12:02:32.689Z,48.27
2022-09-28T12:05:20.661Z,47.49
2022-09-28T12:07:55.800Z,47.50
2022-09-28T12:10:49.558Z,47.55
2022-09-28T12:13:27.562Z,47.70
2022-09-28T12:16:27.657Z,46.32
2022-09-28T12:18:54.822Z,46.18
2022-09-28T12:21:37.981Z,45.82
2022-09-28T12:24:15.038Z,45.96
2022-09-28T12:26:48.404Z,44.86
2022-09-28T12:29:21.727Z,44.65
2022-09-28T12:31:58.771Z,44.49
2022-09-28T12:34:27.190Z,44.39
2022-09-28T12:37:21.895Z,44.04
2022-09-28T12:40:22.617Z,44.06
2022-09-28T12:43:11.280Z,44.79
2022-09-28T12:46:10.841Z,44.38
2022-09-28T12:52:04.217Z,42.20
2022-09-28T12:54:57.681Z,42.78
2022-09-28T12:57:40.504Z,43.49
2022-09-28T13:00:13.242Z,41.48
2022-09-28T13:03:20.909Z,41.23
2022-09-28T13:06:33.249Z,41.31
2022-09-28T13:09:16.889Z,42.25
2022-09-28T13:12:06.820Z,41.44
2022-09-28T13:15:10.960Z,41.88
2022-09-28T13:17:50.052Z,41.34
2022-09-28T13:20:39.131Z,40.58
2022-09-28T13:23:17.616Z,39.94
2022-09-28T13:25:52.228Z,39.85
2022-09-28T13:28:27.033Z,39.55
2022-09-28T13:33:35.820Z,39.63
2022-09-28T13:36:05.781Z,39.08
2022-09-28T13:38:55.414Z,39.46
2022-09-28T13:41:29.281Z,39.46
2022-09-28T13:44:25.317Z,38.93
2022-09-28T13:47:10.221Z,39.44
2022-09-28T13:49:49.620Z,38.54
2022-09-28T13:52:35.088Z,38.74
2022-09-28T13:55:17.600Z,38.93
2022-09-28T13:57:52.511Z,38.93
2022-09-28T14:00:27.538Z,37.90
2022-09-28T14:03:01.721Z,38.44
2022-09-28T14:05:45.649Z,38.37
2022-09-28T14:08:29.232Z,37.79
2022-09-28T14:10:58.375Z,38.81
2022-09-28T14:14:00.344Z,38.88
2022-09-28T14:16:34.738Z,38.95
2022-09-28T14:19:08.503Z,38.92
2022-09-28T14:21:55.989Z,39.44
2022-09-28T14:24:34.621Z,40.16
2022-09-28T14:27:24.564Z,39.94
2022-09-28T14:30:06.533Z,39.88
2022-09-28T14:32:38.268Z,40.09
2022-09-28T14:35:08.678Z,40.52
2022-09-28T14:37:56.861Z,40.43
2022-09-28T14:40:49.830Z,40.46
2022-09-28T14:43:28.625Z,40.31
2022-09-28T14:46:29.648Z,40.51
2022-09-28T14:49:03.248Z,40.84
2022-09-28T14:52:03.252Z,41.49
2022-09-28T14:55:00.886Z,41.52
2022-09-28T14:57:32.464Z,41.88
2022-09-28T15:00:01.757Z,41.93
2022-09-28T15:02:34.202Z,42.48
2022-09-28T15:05:15.756Z,42.59
2022-09-28T15:07:48.284Z,43.45
2022-09-28T15:10:27.662Z,43.57
2022-09-28T15:12:57.282Z,43.66
2022-09-28T15:15:38.642Z,44.03
2022-09-28T15:18:27.664Z,44.01
2022-09-28T15:20:57.452Z,44.52
2022-09-28T15:23:28.804Z,44.88
2022-09-28T15:25:57.146Z,44.83
2022-09-28T15:28:26.033Z,45.29
2022-09-28T15:31:01.514Z,45.63
2022-09-28T15:33:49.356Z,45.63
2022-09-28T15:36:22.644Z,45.85
2022-09-28T15:38:57.671Z,46.09
2022-09-28T15:44:08.580Z,46.64
2022-09-28T15:46:39.057Z,46.95
2022-09-28T15:49:09.538Z,47.00
2022-09-28T15:51:52.424Z,46.86
2022-09-28T15:54:25.448Z,47.56
2022-09-28T15:56:57.880Z,47.62
2022-09-28T15:59:32.054Z,47.26
2022-09-28T16:02:23.101Z,47.26
2022-09-28T16:04:54.239Z,46.93
2022-09-28T16:07:32.286Z,47.23
2022-09-28T16:10:07.202Z,46.80
2022-09-28T16:12:46.663Z,47.06
2022-09-28T16:15:21.472Z,47.03
2022-09-28T16:17:55.366Z,47.10
2022-09-28T16:20:29.284Z,47.02
2022-09-28T16:23:05.811Z,47.48
2022-09-28T16:25:37.226Z,47.40
2022-09-28T16:28:06.861Z,47.49
2022-09-28T16:30:36.118Z,47.80
2022-09-28T16:33:06.802Z,47.88
2022-09-28T16:35:51.297Z,48.79
2022-09-28T16:38:21.401Z,49.35
2022-09-28T16:40:50.819Z,49.69
2022-09-28T16:43:26.970Z,49.34
2022-09-28T16:45:57.623Z,49.02
2022-09-28T16:48:28.179Z,48.81
2022-09-28T16:50:56.489Z,48.63
2022-09-28T16:53:44.552Z,48.62
2022-09-28T16:56:13.766Z,49.21
2022-09-28T16:58:42.586Z,49.45
2022-09-28T17:01:13.089Z,49.53
2022-09-28T17:03:44.329Z,49.50
2022-09-28T17:06:13.638Z,49.37
2022-09-28T17:08:43.200Z,49.60
2022-09-28T17:11:18.175Z,49.94
2022-09-28T17:13:51.910Z,49.23
2022-09-28T17:16:37.286Z,48.97
2022-09-28T17:19:19.953Z,48.84
2022-09-28T17:21:48.956Z,48.25
2022-09-28T17:24:18.889Z,48.29
2022-09-28T17:26:49.119Z,48.31
2022-09-28T17:29:17.612Z,48.67
2022-09-28T17:31:46.757Z,48.62
2022-09-28T17:34:16.752Z,48.83
2022-09-28T17:36:46.709Z,49.08
2022-09-28T17:39:17.902Z,49.20
2022-09-28T17:41:47.957Z,49.45
2022-09-28T17:44:16.604Z,49.76
2022-09-28T17:46:48.724Z,50.02
2022-09-28T17:49:17.888Z,50.34
2022-09-28T17:51:46.057Z,50.37
2022-09-28T17:54:16.923Z,50.71
2022-09-28T17:56:46.261Z,50.66
2022-09-28T17:59:18.589Z,50.76
2022-09-28T18:01:48.445Z,51.01
2022-09-28T18:04:39.711Z,51.15
2022-09-28T18:07:05.635Z,51.26
2022-09-28T18:09:33.773Z,51.08
2022-09-28T18:12:05.320Z,50.91
2022-09-28T18:14:35.910Z,50.84
2022-09-28T18:17:04.501Z,51.00
2022-09-28T18:19:32.775Z,51.23
2022-09-28T18:22:01.601Z,51.27
2022-09-28T18:24:29.962Z,51.53
2022-09-28T18:26:58.211Z,51.40
2022-09-28T18:29:29.891Z,51.51
2022-09-28T18:32:02.671Z,51.69
2022-09-28T18:34:30.953Z,52.13
2022-09-28T18:36:59.136Z,52.39
2022-09-28T18:39:27.738Z,52.35
2022-09-28T18:41:56.073Z,52.21
2022-09-28T18:44:25.587Z,52.13
2022-09-28T18:46:54.485Z,52.01
2022-09-28T18:49:25.054Z,51.69
2022-09-28T18:51:53.311Z,51.88
2022-09-28T18:54:21.576Z,51.72
2022-09-28T18:56:51.331Z,51.62
2022-09-28T18:59:19.594Z,51.63
2022-09-28T19:01:47.821Z,51.94
2022-09-28T19:04:16.409Z,52.10
2022-09-28T19:06:50.477Z,52.58
2022-09-28T19:09:21.194Z,52.56
2022-09-28T19:11:50.237Z,52.56
2022-09-28T19:14:19.544Z,52.92
2022-09-28T19:16:47.816Z,53.08
2022-09-28T19:19:18.476Z,53.08
2022-09-28T19:21:48.589Z,53.10
2022-09-28T19:24:20.918Z,53.29
2022-09-28T19:26:49.897Z,53.25
2022-09-28T19:29:19.129Z,53.37
2022-09-28T19:31:47.664Z,53.57
2022-09-28T19:34:16.021Z,53.24
2022-09-28T19:36:45.769Z,53.40
2022-09-28T19:39:16.407Z,53.05
2022-09-28T19:41:49.623Z,53.00
2022-09-28T19:44:24.604Z,53.06
2022-09-28T19:46:54.805Z,53.07
2022-09-28T19:49:24.078Z,52.72
2022-09-28T19:52:12.877Z,52.63
2022-09-28T19:54:45.053Z,52.51
2022-09-28T19:57:14.623Z,52.60
2022-09-28T19:59:42.893Z,52.37
2022-09-28T20:02:13.394Z,52.30
2022-09-28T20:04:41.808Z,52.53
2022-09-28T20:07:10.161Z,52.60
2022-09-28T20:09:38.514Z,52.49
2022-09-28T20:12:08.234Z,52.38
2022-09-28T20:14:38.204Z,52.57
2022-09-28T20:17:07.871Z,52.44
2022-09-28T20:19:36.179Z,52.38
2022-09-28T20:22:05.037Z,52.06
2022-09-28T20:24:33.740Z,51.93
2022-09-28T20:27:03.002Z,51.92
2022-09-28T20:29:33.511Z,51.96
2022-09-28T20:32:04.162Z,52.25
2022-09-28T20:34:33.624Z,52.11
2022-09-28T20:37:02.246Z,52.49
2022-09-28T20:39:30.620Z,52.38
2022-09-28T20:41:58.869Z,52.31
2022-09-28T20:44:27.180Z,52.54
2022-09-28T20:46:57.406Z,52.50
2022-09-28T20:49:27.250Z,52.88
2022-09-28T20:51:55.626Z,52.66
2022-09-28T20:54:23.898Z,52.67
2022-09-28T20:56:52.354Z,52.56
2022-09-28T20:59:22.977Z,52.40
2022-09-28T21:01:51.435Z,52.32
2022-09-28T21:04:21.245Z,52.31
2022-09-28T21:06:49.684Z,52.39
2022-09-28T21:09:17.928Z,52.64
2022-09-28T21:11:46.829Z,52.32
2022-09-28T21:14:15.508Z,52.41
2022-09-28T21:16:44.355Z,52.66
2022-09-28T21:19:12.737Z,52.69
2022-09-28T21:21:42.886Z,52.91
2022-09-28T21:24:11.157Z,53.10
2022-09-28T21:26:39.441Z,53.37
2022-09-28T21:29:11.773Z,53.67
2022-09-28T21:31:42.604Z,53.76
2022-09-28T21:34:13.881Z,53.85
2022-09-28T21:36:44.887Z,53.86
2022-09-28T21:39:13.320Z,54.07
2022-09-28T21:41:42.236Z,54.06
2022-09-28T21:44:10.946Z,53.92
2022-09-28T21:46:40.104Z,53.92
2022-09-28T21:49:09.798Z,54.04
2022-09-28T21:51:38.746Z,54.09
2022-09-28T21:54:08.576Z,53.95
2022-09-28T21:56:36.880Z,54.09
2022-09-28T21:59:05.151Z,54.10
2022-09-28T22:01:33.544Z,54.53
2022-09-28T22:04:02.238Z,54.53
2022-09-28T22:06:30.586Z,54.63
2022-09-28T22:08:59.333Z,54.66
2022-09-28T22:11:29.843Z,54.74
2022-09-28T22:14:00.244Z,54.48
2022-09-28T22:16:30.815Z,54.45
2022-09-28T22:18:59.673Z,54.61
2022-09-28T22:21:29.605Z,54.92
2022-09-28T22:24:01.003Z,54.91
2022-09-28T22:26:32.937Z,54.71
2022-09-28T22:29:02.839Z,55.10
2022-09-28T22:31:33.022Z,54.79
2022-09-28T22:34:02.538Z,54.91
2022-09-28T22:36:31.184Z,55.04
2022-09-28T22:38:59.833Z,55.12
2022-09-28T22:41:28.692Z,54.88
2022-09-28T22:43:59.114Z,55.23
2022-09-28T22:46:29.313Z,55.17
2022-09-28T22:48:59.964Z,55.32
2022-09-28T22:51:30.185Z,55.36
2022-09-28T22:54:00.106Z,55.21
2022-09-28T22:56:28.819Z,55.18
2022-09-28T22:58:58.924Z,55.21
2022-09-28T23:01:28.775Z,55.21
2022-09-28T23:03:58.205Z,55.06
2022-09-28T23:06:28.409Z,55.11
2022-09-28T23:08:58.171Z,54.98
2022-09-28T23:11:26.848Z,55.06
2022-09-28T23:13:57.168Z,55.11
2022-09-28T23:16:28.061Z,54.96
2022-09-28T23:18:57.296Z,55.05
2022-09-28T23:21:27.649Z,55.00
2022-09-28T23:23:57.812Z,55.11
2022-09-28T23:26:27.448Z,55.15
2022-09-28T23:28:55.804Z,55.21
2022-09-28T23:31:28.083Z,55.05
2022-09-28T23:34:01.605Z,55.00
2022-09-28T23:36:30.101Z,54.58
2022-09-28T23:38:58.668Z,55.00
2022-09-28T23:41:26.954Z,54.79
2022-09-28T23:43:55.213Z,54.48
2022-09-28T23:46:23.575Z,54.15
2022-09-28T23:48:53.396Z,54.13
2022-09-28T23:51:22.852Z,53.87
2022-09-28T23:53:51.073Z,53.83
2022-09-28T23:56:19.338Z,54.03
2022-09-28T23:58:47.608Z,54.23
